sensor_id;sensor_type;location;lat;lon;timestamp;temperature;humidity
36442;DHT22;64346;50.820;16.274;2022-11-20T00:01:14;-2.20;99.90
36442;DHT22;64346;50.820;16.274;2022-11-20T00:03:42;-2.50;99.90
36442;DHT22;64346;50.820;16.274;2022-11-20T00:06:12;-2.50;99.90
36442;DHT22;64346;50.820;16.274;2022-11-20T00:08:40;-2.50;99.90
36442;DHT22;64346;50.820;16.274;2022-11-20T00:11:13;-2.40;99.90
36442;DHT22;64346;50.820;16.274;2022-11-20T00:13:47;-2.40;99.90
36442;DHT22;64346;50.820;16.274;2022-11-20T00:16:18;-2.40;99.90
36442;DHT22;64346;50.820;16.274;2022-11-20T00:18:49;-2.40;99.90
36442;DHT22;64346;50.820;16.274;2022-11-20T00:21:27;-2.50;99.90
36442;DHT22;64346;50.820;16.274;2022-11-20T00:23:57;-2.50;99.90
36442;DHT22;64346;50.820;16.274;2022-11-20T00:26:26;-2.60;99.90
36442;DHT22;64346;50.820;16.274;2022-11-20T00:28:58;-2.60;99.90
36442;DHT22;64346;50.820;16.274;2022-11-20T00:31:26;-2.60;99.90
36442;DHT22;64346;50.820;16.274;2022-11-20T00:33:54;-2.60;99.90
36442;DHT22;64346;50.820;16.274;2022-11-20T00:36:23;-2.60;99.90
36442;DHT22;64346;50.820;16.274;2022-11-20T00:38:52;-2.60;99.90
36442;DHT22;64346;50.820;16.274;2022-11-20T00:41:19;-2.60;99.90
36442;DHT22;64346;50.820;16.274;2022-11-20T00:43:50;-2.60;99.90
36442;DHT22;64346;50.820;16.274;2022-11-20T00:46:20;-2.60;99.90
36442;DHT22;64346;50.820;16.274;2022-11-20T00:48:48;-2.60;99.90
36442;DHT22;64346;50.820;16.274;2022-11-20T00:51:17;-2.60;99.90
36442;DHT22;64346;50.820;16.274;2022-11-20T00:53:46;-2.50;99.90
36442;DHT22;64346;50.820;16.274;2022-11-20T00:56:19;-2.50;99.90
36442;DHT22;64346;50.820;16.274;2022-11-20T00:58:48;-2.50;99.90
36442;DHT22;64346;50.820;16.274;2022-11-20T01:01:23;-2.70;99.90
36442;DHT22;64346;50.820;16.274;2022-11-20T01:03:53;-2.80;99.90
36442;DHT22;64346;50.820;16.274;2022-11-20T01:08:54;-2.90;99.90
36442;DHT22;64346;50.820;16.274;2022-11-20T01:11:24;-2.90;99.90
36442;DHT22;64346;50.820;16.274;2022-11-20T01:13:53;-2.90;99.90
36442;DHT22;64346;50.820;16.274;2022-11-20T01:16:32;-3.00;99.90
36442;DHT22;64346;50.820;16.274;2022-11-20T01:19:04;-3.00;99.90
36442;DHT22;64346;50.820;16.274;2022-11-20T01:21:34;-3.00;99.90
36442;DHT22;64346;50.820;16.274;2022-11-20T01:24:03;-3.00;99.90
36442;DHT22;64346;50.820;16.274;2022-11-20T01:26:33;-3.00;99.90
36442;DHT22;64346;50.820;16.274;2022-11-20T01:29:02;-3.10;99.90
36442;DHT22;64346;50.820;16.274;2022-11-20T01:31:34;-3.00;99.90
36442;DHT22;64346;50.820;16.274;2022-11-20T01:34:06;-3.00;99.90
36442;DHT22;64346;50.820;16.274;2022-11-20T01:36:35;-3.00;99.90
36442;DHT22;64346;50.820;16.274;2022-11-20T01:39:15;-3.00;99.90
36442;DHT22;64346;50.820;16.274;2022-11-20T01:41:43;-3.00;99.90
36442;DHT22;64346;50.820;16.274;2022-11-20T01:44:13;-3.10;99.90
36442;DHT22;64346;50.820;16.274;2022-11-20T01:49:27;-3.10;99.90
36442;DHT22;64346;50.820;16.274;2022-11-20T01:52:03;-3.20;99.90
36442;DHT22;64346;50.820;16.274;2022-11-20T01:54:38;-3.20;99.90
36442;DHT22;64346;50.820;16.274;2022-11-20T01:57:09;-3.20;99.90
36442;DHT22;64346;50.820;16.274;2022-11-20T01:59:44;-3.20;99.90
36442;DHT22;64346;50.820;16.274;2022-11-20T02:02:13;-3.10;99.90
36442;DHT22;64346;50.820;16.274;2022-11-20T02:04:46;-3.20;99.90
36442;DHT22;64346;50.820;16.274;2022-11-20T02:07:13;-3.20;99.90
36442;DHT22;64346;50.820;16.274;2022-11-20T02:09:44;-3.20;99.90
36442;DHT22;64346;50.820;16.274;2022-11-20T02:12:11;-3.10;99.90
36442;DHT22;64346;50.820;16.274;2022-11-20T02:14:41;-3.10;99.90
36442;DHT22;64346;50.820;16.274;2022-11-20T02:17:08;-3.10;99.90
36442;DHT22;64346;50.820;16.274;2022-11-20T02:19:38;-3.10;99.90
36442;DHT22;64346;50.820;16.274;2022-11-20T02:22:18;-3.10;99.90
36442;DHT22;64346;50.820;16.274;2022-11-20T02:24:50;-3.20;99.90
36442;DHT22;64346;50.820;16.274;2022-11-20T02:27:18;-3.10;99.90
36442;DHT22;64346;50.820;16.274;2022-11-20T02:29:52;-3.20;99.90
36442;DHT22;64346;50.820;16.274;2022-11-20T02:32:21;-3.20;99.90
36442;DHT22;64346;50.820;16.274;2022-11-20T02:34:51;-3.20;99.90
36442;DHT22;64346;50.820;16.274;2022-11-20T02:37:20;-3.20;99.90
36442;DHT22;64346;50.820;16.274;2022-11-20T02:39:49;-3.20;99.90
36442;DHT22;64346;50.820;16.274;2022-11-20T02:42:19;-3.20;99.90
36442;DHT22;64346;50.820;16.274;2022-11-20T02:44:46;-3.10;99.90
36442;DHT22;64346;50.820;16.274;2022-11-20T02:47:14;-3.20;99.90
36442;DHT22;64346;50.820;16.274;2022-11-20T02:49:41;-3.20;99.90
36442;DHT22;64346;50.820;16.274;2022-11-20T02:52:08;-3.10;99.90
36442;DHT22;64346;50.820;16.274;2022-11-20T02:54:35;-3.10;99.90
36442;DHT22;64346;50.820;16.274;2022-11-20T02:57:02;-3.10;99.90
36442;DHT22;64346;50.820;16.274;2022-11-20T02:59:32;-3.10;99.90
36442;DHT22;64346;50.820;16.274;2022-11-20T03:01:59;-3.10;99.90
36442;DHT22;64346;50.820;16.274;2022-11-20T03:04:27;-3.10;99.90
36442;DHT22;64346;50.820;16.274;2022-11-20T03:06:54;-3.00;99.90
36442;DHT22;64346;50.820;16.274;2022-11-20T03:09:21;-3.00;99.90
36442;DHT22;64346;50.820;16.274;2022-11-20T03:11:51;-3.00;99.90
36442;DHT22;64346;50.820;16.274;2022-11-20T03:14:21;-3.00;99.90
36442;DHT22;64346;50.820;16.274;2022-11-20T03:16:48;-3.10;99.90
36442;DHT22;64346;50.820;16.274;2022-11-20T03:19:16;-3.10;99.90
36442;DHT22;64346;50.820;16.274;2022-11-20T03:21:43;-3.20;99.90
36442;DHT22;64346;50.820;16.274;2022-11-20T03:24:10;-3.20;99.90
36442;DHT22;64346;50.820;16.274;2022-11-20T03:26:42;-3.20;99.90
36442;DHT22;64346;50.820;16.274;2022-11-20T03:29:12;-3.20;99.90
36442;DHT22;64346;50.820;16.274;2022-11-20T03:31:40;-3.20;99.90
36442;DHT22;64346;50.820;16.274;2022-11-20T03:34:10;-3.30;99.90
36442;DHT22;64346;50.820;16.274;2022-11-20T03:36:39;-3.20;99.90
36442;DHT22;64346;50.820;16.274;2022-11-20T03:39:09;-3.20;99.90
36442;DHT22;64346;50.820;16.274;2022-11-20T03:41:42;-3.30;99.90
36442;DHT22;64346;50.820;16.274;2022-11-20T03:44:11;-3.20;99.90
36442;DHT22;64346;50.820;16.274;2022-11-20T03:46:38;-3.20;99.90
36442;DHT22;64346;50.820;16.274;2022-11-20T03:49:08;-3.20;99.90
36442;DHT22;64346;50.820;16.274;2022-11-20T03:51:37;-3.30;99.90
36442;DHT22;64346;50.820;16.274;2022-11-20T03:54:09;-3.20;99.90
36442;DHT22;64346;50.820;16.274;2022-11-20T03:56:38;-3.30;99.90
36442;DHT22;64346;50.820;16.274;2022-11-20T03:59:06;-3.30;99.90
36442;DHT22;64346;50.820;16.274;2022-11-20T04:01:35;-3.30;99.90
36442;DHT22;64346;50.820;16.274;2022-11-20T04:04:03;-3.20;99.90
36442;DHT22;64346;50.820;16.274;2022-11-20T04:06:34;-3.30;99.90
36442;DHT22;64346;50.820;16.274;2022-11-20T04:09:02;-3.30;99.90
36442;DHT22;64346;50.820;16.274;2022-11-20T04:11:31;-3.30;99.90
36442;DHT22;64346;50.820;16.274;2022-11-20T04:14:04;-3.30;99.90
36442;DHT22;64346;50.820;16.274;2022-11-20T04:16:35;-3.30;99.90
36442;DHT22;64346;50.820;16.274;2022-11-20T04:19:09;-3.30;99.90
36442;DHT22;64346;50.820;16.274;2022-11-20T04:21:39;-3.30;99.90
36442;DHT22;64346;50.820;16.274;2022-11-20T04:24:07;-3.20;99.90
36442;DHT22;64346;50.820;16.274;2022-11-20T04:26:40;-3.20;99.90
36442;DHT22;64346;50.820;16.274;2022-11-20T04:29:10;-3.30;99.90
36442;DHT22;64346;50.820;16.274;2022-11-20T04:31:38;-3.30;99.90
36442;DHT22;64346;50.820;16.274;2022-11-20T04:34:06;-3.30;99.90
36442;DHT22;64346;50.820;16.274;2022-11-20T04:36:36;-3.30;99.90
36442;DHT22;64346;50.820;16.274;2022-11-20T04:39:11;-3.30;99.90
36442;DHT22;64346;50.820;16.274;2022-11-20T04:41:41;-3.30;99.90
36442;DHT22;64346;50.820;16.274;2022-11-20T04:44:08;-3.30;99.90
36442;DHT22;64346;50.820;16.274;2022-11-20T04:46:38;-3.30;99.90
36442;DHT22;64346;50.820;16.274;2022-11-20T04:49:06;-3.40;99.90
36442;DHT22;64346;50.820;16.274;2022-11-20T04:51:33;-3.40;99.90
36442;DHT22;64346;50.820;16.274;2022-11-20T04:54:01;-3.40;99.90
36442;DHT22;64346;50.820;16.274;2022-11-20T04:56:28;-3.40;99.90
36442;DHT22;64346;50.820;16.274;2022-11-20T04:59:02;-3.40;99.90
36442;DHT22;64346;50.820;16.274;2022-11-20T05:01:29;-3.50;99.90
36442;DHT22;64346;50.820;16.274;2022-11-20T05:03:57;-3.50;99.90
36442;DHT22;64346;50.820;16.274;2022-11-20T05:06:27;-3.50;99.90
36442;DHT22;64346;50.820;16.274;2022-11-20T05:08:54;-3.50;99.90
36442;DHT22;64346;50.820;16.274;2022-11-20T05:11:21;-3.50;99.90
36442;DHT22;64346;50.820;16.274;2022-11-20T05:13:50;-3.50;99.90
36442;DHT22;64346;50.820;16.274;2022-11-20T05:16:21;-3.50;99.90
36442;DHT22;64346;50.820;16.274;2022-11-20T05:18:49;-3.50;99.90
36442;DHT22;64346;50.820;16.274;2022-11-20T05:21:17;-3.50;99.90
36442;DHT22;64346;50.820;16.274;2022-11-20T05:23:50;-3.50;99.90
36442;DHT22;64346;50.820;16.274;2022-11-20T05:26:20;-3.50;99.90
36442;DHT22;64346;50.820;16.274;2022-11-20T05:28:50;-3.60;99.90
36442;DHT22;64346;50.820;16.274;2022-11-20T05:31:24;-3.50;99.90
36442;DHT22;64346;50.820;16.274;2022-11-20T05:33:55;-3.50;99.90
36442;DHT22;64346;50.820;16.274;2022-11-20T05:36:23;-3.60;99.90
36442;DHT22;64346;50.820;16.274;2022-11-20T05:38:53;-3.70;99.90
36442;DHT22;64346;50.820;16.274;2022-11-20T05:41:27;-3.70;99.90
36442;DHT22;64346;50.820;16.274;2022-11-20T05:43:56;-3.60;99.90
36442;DHT22;64346;50.820;16.274;2022-11-20T05:46:23;-3.70;99.90
36442;DHT22;64346;50.820;16.274;2022-11-20T05:48:56;-3.70;99.90
36442;DHT22;64346;50.820;16.274;2022-11-20T05:51:28;-3.70;99.90
36442;DHT22;64346;50.820;16.274;2022-11-20T05:53:56;-3.70;99.90
36442;DHT22;64346;50.820;16.274;2022-11-20T05:56:26;-3.80;99.90
36442;DHT22;64346;50.820;16.274;2022-11-20T05:58:53;-3.80;99.90
36442;DHT22;64346;50.820;16.274;2022-11-20T06:01:24;-3.80;99.90
36442;DHT22;64346;50.820;16.274;2022-11-20T06:03:53;-3.80;99.90
36442;DHT22;64346;50.820;16.274;2022-11-20T06:06:23;-3.80;99.90
36442;DHT22;64346;50.820;16.274;2022-11-20T06:08:52;-3.80;99.90
36442;DHT22;64346;50.820;16.274;2022-11-20T06:11:20;-3.70;99.90
36442;DHT22;64346;50.820;16.274;2022-11-20T06:13:47;-3.70;99.90
36442;DHT22;64346;50.820;16.274;2022-11-20T06:16:19;-3.70;99.90
36442;DHT22;64346;50.820;16.274;2022-11-20T06:18:47;-3.70;99.90
36442;DHT22;64346;50.820;16.274;2022-11-20T06:21:17;-3.70;99.90
36442;DHT22;64346;50.820;16.274;2022-11-20T06:23:45;-3.60;99.90
36442;DHT22;64346;50.820;16.274;2022-11-20T06:26:15;-3.60;99.90
36442;DHT22;64346;50.820;16.274;2022-11-20T06:28:46;-3.60;99.90
36442;DHT22;64346;50.820;16.274;2022-11-20T06:31:15;-3.40;99.90
36442;DHT22;64346;50.820;16.274;2022-11-20T06:33:45;-3.00;99.90
36442;DHT22;64346;50.820;16.274;2022-11-20T06:36:14;-2.50;99.90
36442;DHT22;64346;50.820;16.274;2022-11-20T06:38:45;-1.80;99.90
36442;DHT22;64346;50.820;16.274;2022-11-20T06:41:22;-1.00;99.90
36442;DHT22;64346;50.820;16.274;2022-11-20T06:43:50;0.00;99.90
36442;DHT22;64346;50.820;16.274;2022-11-20T06:46:19;1.00;99.90
36442;DHT22;64346;50.820;16.274;2022-11-20T06:48:49;2.00;99.90
36442;DHT22;64346;50.820;16.274;2022-11-20T06:51:16;3.00;99.70
36442;DHT22;64346;50.820;16.274;2022-11-20T06:53:47;3.90;97.00
36442;DHT22;64346;50.820;16.274;2022-11-20T06:56:14;4.80;94.50
36442;DHT22;64346;50.820;16.274;2022-11-20T06:58:41;5.90;90.10
36442;DHT22;64346;50.820;16.274;2022-11-20T07:01:14;6.90;85.00
36442;DHT22;64346;50.820;16.274;2022-11-20T07:03:44;8.10;78.40
36442;DHT22;64346;50.820;16.274;2022-11-20T07:06:17;9.20;73.20
36442;DHT22;64346;50.820;16.274;2022-11-20T07:08:44;10.40;68.20
36442;DHT22;64346;50.820;16.274;2022-11-20T07:11:14;11.40;64.30
36442;DHT22;64346;50.820;16.274;2022-11-20T07:13:44;12.40;60.70
36442;DHT22;64346;50.820;16.274;2022-11-20T07:16:11;13.30;57.20
36442;DHT22;64346;50.820;16.274;2022-11-20T07:18:38;14.20;54.50
36442;DHT22;64346;50.820;16.274;2022-11-20T07:21:07;15.00;52.10
36442;DHT22;64346;50.820;16.274;2022-11-20T07:23:36;15.80;50.20
36442;DHT22;64346;50.820;16.274;2022-11-20T07:26:07;16.70;47.80
36442;DHT22;64346;50.820;16.274;2022-11-20T07:28:35;17.50;46.20
36442;DHT22;64346;50.820;16.274;2022-11-20T07:31:03;18.20;44.90
36442;DHT22;64346;50.820;16.274;2022-11-20T07:33:31;18.70;43.90
36442;DHT22;64346;50.820;16.274;2022-11-20T07:35:59;19.20;42.80
36442;DHT22;64346;50.820;16.274;2022-11-20T07:38:26;19.50;41.50
36442;DHT22;64346;50.820;16.274;2022-11-20T07:40:57;20.00;41.10
36442;DHT22;64346;50.820;16.274;2022-11-20T07:43:24;20.40;40.80
36442;DHT22;64346;50.820;16.274;2022-11-20T07:45:51;21.10;39.90
36442;DHT22;64346;50.820;16.274;2022-11-20T07:48:19;22.10;38.90
36442;DHT22;64346;50.820;16.274;2022-11-20T07:50:52;22.90;38.30
36442;DHT22;64346;50.820;16.274;2022-11-20T07:53:20;23.60;37.50
36442;DHT22;64346;50.820;16.274;2022-11-20T07:55:49;24.30;36.60
36442;DHT22;64346;50.820;16.274;2022-11-20T07:58:17;24.90;36.10
36442;DHT22;64346;50.820;16.274;2022-11-20T08:00:44;25.40;35.30
36442;DHT22;64346;50.820;16.274;2022-11-20T08:03:11;25.60;34.80
36442;DHT22;64346;50.820;16.274;2022-11-20T08:05:43;26.00;34.40
36442;DHT22;64346;50.820;16.274;2022-11-20T08:08:13;25.90;34.00
36442;DHT22;64346;50.820;16.274;2022-11-20T08:10:40;26.30;34.00
36442;DHT22;64346;50.820;16.274;2022-11-20T08:13:08;26.90;33.60
36442;DHT22;64346;50.820;16.274;2022-11-20T08:15:37;27.30;33.20
36442;DHT22;64346;50.820;16.274;2022-11-20T08:18:11;27.60;32.90
36442;DHT22;64346;50.820;16.274;2022-11-20T08:21:02;27.50;32.90
36442;DHT22;64346;50.820;16.274;2022-11-20T08:23:30;27.60;32.80
36442;DHT22;64346;50.820;16.274;2022-11-20T08:26:01;27.70;32.70
36442;DHT22;64346;50.820;16.274;2022-11-20T08:28:29;28.00;32.60
36442;DHT22;64346;50.820;16.274;2022-11-20T08:31:04;28.10;32.60
36442;DHT22;64346;50.820;16.274;2022-11-20T08:33:32;27.50;32.80
36442;DHT22;64346;50.820;16.274;2022-11-20T08:36:04;27.00;33.20
36442;DHT22;64346;50.820;16.274;2022-11-20T08:38:34;26.60;33.10
36442;DHT22;64346;50.820;16.274;2022-11-20T08:41:04;25.90;33.70
36442;DHT22;64346;50.820;16.274;2022-11-20T08:43:32;25.70;33.60
36442;DHT22;64346;50.820;16.274;2022-11-20T08:45:59;25.40;34.20
36442;DHT22;64346;50.820;16.274;2022-11-20T08:48:26;25.40;34.10
36442;DHT22;64346;50.820;16.274;2022-11-20T08:50:53;24.90;34.00
36442;DHT22;64346;50.820;16.274;2022-11-20T08:53:24;24.30;35.00
36442;DHT22;64346;50.820;16.274;2022-11-20T08:55:51;24.20;34.70
36442;DHT22;64346;50.820;16.274;2022-11-20T08:58:19;23.80;35.10
36442;DHT22;64346;50.820;16.274;2022-11-20T09:00:46;22.80;36.00
36442;DHT22;64346;50.820;16.274;2022-11-20T09:03:16;22.20;36.60
36442;DHT22;64346;50.820;16.274;2022-11-20T09:05:45;21.80;36.90
36442;DHT22;64346;50.820;16.274;2022-11-20T09:08:12;22.50;36.50
36442;DHT22;64346;50.820;16.274;2022-11-20T09:10:40;23.10;36.50
36442;DHT22;64346;50.820;16.274;2022-11-20T09:13:07;24.10;35.70
36442;DHT22;64346;50.820;16.274;2022-11-20T09:15:39;24.90;35.10
36442;DHT22;64346;50.820;16.274;2022-11-20T09:18:06;26.10;34.60
36442;DHT22;64346;50.820;16.274;2022-11-20T09:20:34;26.60;33.90
36442;DHT22;64346;50.820;16.274;2022-11-20T09:23:01;27.30;33.40
36442;DHT22;64346;50.820;16.274;2022-11-20T09:25:28;27.20;33.30
36442;DHT22;64346;50.820;16.274;2022-11-20T09:27:56;27.60;33.30
36442;DHT22;64346;50.820;16.274;2022-11-20T09:30:24;27.90;33.10
36442;DHT22;64346;50.820;16.274;2022-11-20T09:32:52;27.70;33.00
36442;DHT22;64346;50.820;16.274;2022-11-20T09:35:19;27.80;33.20
36442;DHT22;64346;50.820;16.274;2022-11-20T09:37:46;28.10;33.00
36442;DHT22;64346;50.820;16.274;2022-11-20T09:40:21;27.90;33.00
36442;DHT22;64346;50.820;16.274;2022-11-20T09:45:56;27.40;33.50
36442;DHT22;64346;50.820;16.274;2022-11-20T09:54:18;27.00;33.80
36442;DHT22;64346;50.820;16.274;2022-11-20T09:56:55;27.80;33.10
36442;DHT22;64346;50.820;16.274;2022-11-20T10:05:24;27.60;33.20
36442;DHT22;64346;50.820;16.274;2022-11-20T10:10:40;27.20;32.80
36442;DHT22;64346;50.820;16.274;2022-11-20T10:25:10;27.60;33.40
36442;DHT22;64346;50.820;16.274;2022-11-20T10:30:23;28.70;32.80
36442;DHT22;64346;50.820;16.274;2022-11-20T10:33:23;28.00;32.70
36442;DHT22;64346;50.820;16.274;2022-11-20T10:38:35;25.50;34.00
36442;DHT22;64346;50.820;16.274;2022-11-20T10:41:06;24.20;35.10
36442;DHT22;64346;50.820;16.274;2022-11-20T10:43:36;24.00;34.70
36442;DHT22;64346;50.820;16.274;2022-11-20T10:46:09;22.60;36.60
36442;DHT22;64346;50.820;16.274;2022-11-20T10:48:44;21.50;37.50
36442;DHT22;64346;50.820;16.274;2022-11-20T10:51:57;21.60;37.20
36442;DHT22;64346;50.820;16.274;2022-11-20T11:00:26;20.40;38.70
36442;DHT22;64346;50.820;16.274;2022-11-20T11:02:54;21.30;37.70
36442;DHT22;64346;50.820;16.274;2022-11-20T11:08:10;21.50;37.50
36442;DHT22;64346;50.820;16.274;2022-11-20T11:10:57;18.90;39.50
36442;DHT22;64346;50.820;16.274;2022-11-20T11:13:29;15.90;43.30
36442;DHT22;64346;50.820;16.274;2022-11-20T11:15:59;13.10;47.10
36442;DHT22;64346;50.820;16.274;2022-11-20T11:18:34;11.10;51.10
36442;DHT22;64346;50.820;16.274;2022-11-20T11:21:05;9.40;54.20
36442;DHT22;64346;50.820;16.274;2022-11-20T11:23:38;7.60;58.30
36442;DHT22;64346;50.820;16.274;2022-11-20T11:26:21;6.10;62.20
36442;DHT22;64346;50.820;16.274;2022-11-20T11:31:34;3.70;70.50
36442;DHT22;64346;50.820;16.274;2022-11-20T11:34:10;3.10;72.90
36442;DHT22;64346;50.820;16.274;2022-11-20T11:36:41;2.70;75.30
36442;DHT22;64346;50.820;16.274;2022-11-20T11:39:15;2.40;78.10
36442;DHT22;64346;50.820;16.274;2022-11-20T11:41:44;2.20;80.20
36442;DHT22;64346;50.820;16.274;2022-11-20T11:46:53;2.00;86.20
36442;DHT22;64346;50.820;16.274;2022-11-20T11:49:21;2.00;88.80
36442;DHT22;64346;50.820;16.274;2022-11-20T11:54:41;1.80;92.40
36442;DHT22;64346;50.820;16.274;2022-11-20T12:00:03;1.80;95.20
36442;DHT22;64346;50.820;16.274;2022-11-20T12:11:23;2.10;98.00
36442;DHT22;64346;50.820;16.274;2022-11-20T12:16:34;2.40;97.30
36442;DHT22;64346;50.820;16.274;2022-11-20T12:19:08;2.30;97.20
36442;DHT22;64346;50.820;16.274;2022-11-20T12:24:58;2.30;97.20
36442;DHT22;64346;50.820;16.274;2022-11-20T12:35:50;2.40;96.70
36442;DHT22;64346;50.820;16.274;2022-11-20T12:41:40;2.50;97.10
36442;DHT22;64346;50.820;16.274;2022-11-20T12:49:41;2.40;96.50
36442;DHT22;64346;50.820;16.274;2022-11-20T12:54:53;2.20;96.50
36442;DHT22;64346;50.820;16.274;2022-11-20T13:00:19;1.80;97.60
36442;DHT22;64346;50.820;16.274;2022-11-20T13:03:09;1.70;98.40
36442;DHT22;64346;50.820;16.274;2022-11-20T13:08:36;1.50;99.80
36442;DHT22;64346;50.820;16.274;2022-11-20T13:17:16;1.30;99.90
36442;DHT22;64346;50.820;16.274;2022-11-20T13:19:55;1.30;99.90
36442;DHT22;64346;50.820;16.274;2022-11-20T13:22:46;1.40;99.90
36442;DHT22;64346;50.820;16.274;2022-11-20T13:27:53;1.30;99.90
36442;DHT22;64346;50.820;16.274;2022-11-20T13:30:28;1.30;99.90
36442;DHT22;64346;50.820;16.274;2022-11-20T13:35:37;1.30;99.90
36442;DHT22;64346;50.820;16.274;2022-11-20T13:38:12;1.30;99.90
36442;DHT22;64346;50.820;16.274;2022-11-20T13:40:56;1.30;99.90
36442;DHT22;64346;50.820;16.274;2022-11-20T13:43:41;1.20;99.90
36442;DHT22;64346;50.820;16.274;2022-11-20T13:46:09;1.20;99.90
36442;DHT22;64346;50.820;16.274;2022-11-20T13:54:01;1.20;99.90
36442;DHT22;64346;50.820;16.274;2022-11-20T13:56:48;1.20;99.90
36442;DHT22;64346;50.820;16.274;2022-11-20T14:01:48;1.50;99.90
36442;DHT22;64346;50.820;16.274;2022-11-20T14:04:24;1.70;99.90
36442;DHT22;64346;50.820;16.274;2022-11-20T14:06:53;1.80;99.90
36442;DHT22;64346;50.820;16.274;2022-11-20T14:11:55;1.90;99.90
36442;DHT22;64346;50.820;16.274;2022-11-20T14:14:28;1.70;99.90
36442;DHT22;64346;50.820;16.274;2022-11-20T14:17:19;1.70;99.90
36442;DHT22;64346;50.820;16.274;2022-11-20T14:19:48;1.40;99.90
36442;DHT22;64346;50.820;16.274;2022-11-20T14:22:20;1.20;99.90
36442;DHT22;64346;50.820;16.274;2022-11-20T14:24:49;1.00;99.90
36442;DHT22;64346;50.820;16.274;2022-11-20T14:27:27;0.90;99.90
36442;DHT22;64346;50.820;16.274;2022-11-20T14:29:57;0.80;99.90
36442;DHT22;64346;50.820;16.274;2022-11-20T14:32:29;0.60;99.90
36442;DHT22;64346;50.820;16.274;2022-11-20T14:35:08;0.50;99.90
36442;DHT22;64346;50.820;16.274;2022-11-20T14:37:40;0.40;99.90
36442;DHT22;64346;50.820;16.274;2022-11-20T14:40:27;0.30;99.90
36442;DHT22;64346;50.820;16.274;2022-11-20T14:42:55;0.30;99.90
36442;DHT22;64346;50.820;16.274;2022-11-20T14:45:24;0.30;99.90
36442;DHT22;64346;50.820;16.274;2022-11-20T14:47:56;0.20;99.90
36442;DHT22;64346;50.820;16.274;2022-11-20T14:50:27;0.00;99.90
36442;DHT22;64346;50.820;16.274;2022-11-20T14:55:40;0.00;99.90
36442;DHT22;64346;50.820;16.274;2022-11-20T14:58:29;-0.10;99.90
36442;DHT22;64346;50.820;16.274;2022-11-20T15:00:58;-0.10;99.90
36442;DHT22;64346;50.820;16.274;2022-11-20T15:03:37;-0.10;99.90
36442;DHT22;64346;50.820;16.274;2022-11-20T15:06:11;-0.20;99.90
36442;DHT22;64346;50.820;16.274;2022-11-20T15:08:52;-0.20;99.90
36442;DHT22;64346;50.820;16.274;2022-11-20T15:11:27;-0.20;99.90
36442;DHT22;64346;50.820;16.274;2022-11-20T15:13:56;-0.20;99.90
36442;DHT22;64346;50.820;16.274;2022-11-20T15:16:24;-0.30;99.90
36442;DHT22;64346;50.820;16.274;2022-11-20T15:18:54;-0.30;99.90
36442;DHT22;64346;50.820;16.274;2022-11-20T15:21:21;-0.40;99.90
36442;DHT22;64346;50.820;16.274;2022-11-20T15:23:52;-0.40;99.90
36442;DHT22;64346;50.820;16.274;2022-11-20T15:26:26;-0.40;99.90
36442;DHT22;64346;50.820;16.274;2022-11-20T15:28:54;-0.50;99.90
36442;DHT22;64346;50.820;16.274;2022-11-20T15:31:23;-0.40;99.90
36442;DHT22;64346;50.820;16.274;2022-11-20T15:33:50;-0.30;99.90
36442;DHT22;64346;50.820;16.274;2022-11-20T15:36:20;-0.30;99.90
36442;DHT22;64346;50.820;16.274;2022-11-20T15:38:48;-0.30;99.90
36442;DHT22;64346;50.820;16.274;2022-11-20T15:41:15;-0.30;99.90
36442;DHT22;64346;50.820;16.274;2022-11-20T15:43:43;-0.30;99.90
36442;DHT22;64346;50.820;16.274;2022-11-20T15:46:17;-0.40;99.90
36442;DHT22;64346;50.820;16.274;2022-11-20T15:48:53;-0.40;99.90
36442;DHT22;64346;50.820;16.274;2022-11-20T15:51:34;-0.40;99.90
36442;DHT22;64346;50.820;16.274;2022-11-20T15:54:21;-0.40;99.90
36442;DHT22;64346;50.820;16.274;2022-11-20T15:56:52;-0.30;99.90
36442;DHT22;64346;50.820;16.274;2022-11-20T15:59:19;-0.30;99.90
36442;DHT22;64346;50.820;16.274;2022-11-20T16:01:47;-0.30;99.90
36442;DHT22;64346;50.820;16.274;2022-11-20T16:04:16;-0.30;99.90
36442;DHT22;64346;50.820;16.274;2022-11-20T16:06:43;-0.30;99.90
36442;DHT22;64346;50.820;16.274;2022-11-20T16:09:11;-0.30;99.90
36442;DHT22;64346;50.820;16.274;2022-11-20T16:11:40;-0.30;99.90
36442;DHT22;64346;50.820;16.274;2022-11-20T16:14:10;-0.30;99.90
36442;DHT22;64346;50.820;16.274;2022-11-20T16:16:37;-0.30;99.90
36442;DHT22;64346;50.820;16.274;2022-11-20T16:19:12;-0.40;99.90
36442;DHT22;64346;50.820;16.274;2022-11-20T16:21:42;-0.40;99.90
36442;DHT22;64346;50.820;16.274;2022-11-20T16:24:11;-0.40;99.90
36442;DHT22;64346;50.820;16.274;2022-11-20T16:26:40;-0.40;99.90
36442;DHT22;64346;50.820;16.274;2022-11-20T16:29:08;-0.50;99.90
36442;DHT22;64346;50.820;16.274;2022-11-20T16:31:36;-0.50;99.90
36442;DHT22;64346;50.820;16.274;2022-11-20T16:34:05;-0.50;99.90
36442;DHT22;64346;50.820;16.274;2022-11-20T16:36:42;-0.60;99.90
36442;DHT22;64346;50.820;16.274;2022-11-20T16:39:12;-0.60;99.90
36442;DHT22;64346;50.820;16.274;2022-11-20T16:41:46;-0.60;99.90
36442;DHT22;64346;50.820;16.274;2022-11-20T16:44:13;-0.60;99.90
36442;DHT22;64346;50.820;16.274;2022-11-20T16:46:43;-0.60;99.90
36442;DHT22;64346;50.820;16.274;2022-11-20T16:49:12;-0.60;99.90
36442;DHT22;64346;50.820;16.274;2022-11-20T16:51:42;-0.60;99.90
36442;DHT22;64346;50.820;16.274;2022-11-20T16:54:09;-0.70;99.90
36442;DHT22;64346;50.820;16.274;2022-11-20T16:56:41;-0.70;99.90
36442;DHT22;64346;50.820;16.274;2022-11-20T16:59:13;-0.70;99.90
36442;DHT22;64346;50.820;16.274;2022-11-20T17:01:40;-0.70;99.90
36442;DHT22;64346;50.820;16.274;2022-11-20T17:04:08;-0.70;99.90
36442;DHT22;64346;50.820;16.274;2022-11-20T17:06:41;-0.70;99.90
36442;DHT22;64346;50.820;16.274;2022-11-20T17:09:14;-0.70;99.90
36442;DHT22;64346;50.820;16.274;2022-11-20T17:11:41;-0.70;99.90
36442;DHT22;64346;50.820;16.274;2022-11-20T17:14:11;-0.70;99.90
36442;DHT22;64346;50.820;16.274;2022-11-20T17:16:39;-0.70;99.90
36442;DHT22;64346;50.820;16.274;2022-11-20T17:19:06;-0.70;99.90
36442;DHT22;64346;50.820;16.274;2022-11-20T17:21:34;-0.80;99.90
36442;DHT22;64346;50.820;16.274;2022-11-20T17:24:06;-0.80;99.90
36442;DHT22;64346;50.820;16.274;2022-11-20T17:26:38;-0.80;99.90
36442;DHT22;64346;50.820;16.274;2022-11-20T17:29:10;-0.80;99.90
36442;DHT22;64346;50.820;16.274;2022-11-20T17:31:38;-0.80;99.90
36442;DHT22;64346;50.820;16.274;2022-11-20T17:34:09;-0.80;99.90
36442;DHT22;64346;50.820;16.274;2022-11-20T17:36:38;-0.70;99.90
36442;DHT22;64346;50.820;16.274;2022-11-20T17:39:12;-0.80;99.90
36442;DHT22;64346;50.820;16.274;2022-11-20T17:41:39;-0.70;99.90
36442;DHT22;64346;50.820;16.274;2022-11-20T17:44:09;-0.80;99.90